Time;durP1;ratioP1;P1;durP2;ratioP2;P2;SDS_P1;SDS_P2;PMS_P1;PMS_P2;Temp;Humidity;BMP_temperature;BMP_pressure;BME280_temperature;BME280_humidity;BME280_pressure;Samples;Min_cycle;Max_cycle;Signal;HPM_P1;HPM_P2
2022/06/16 00:02:01;;;;;;;2.60;2.10;;;20.50;92.90;;;;;;5016323;28;20451;-92
2022/06/16 00:04:30;;;;;;;2.37;2.10;;;20.50;93.00;;;;;;5021110;28;20417;-94
2022/06/16 00:06:56;;;;;;;2.67;2.30;;;20.50;93.00;;;;;;5018019;28;20534;-93
2022/06/16 00:09:26;;;;;;;2.80;2.60;;;20.40;93.00;;;;;;5016522;28;20408;-94
2022/06/16 00:11:52;;;;;;;2.50;2.30;;;20.40;93.10;;;;;;5017965;28;20695;-93
2022/06/16 00:14:18;;;;;;;2.20;2.10;;;20.30;93.10;;;;;;5015760;28;20792;-95
2022/06/16 00:16:47;;;;;;;2.63;2.43;;;20.30;93.20;;;;;;5014536;28;20494;-93
2022/06/16 00:19:13;;;;;;;2.13;1.93;;;20.30;93.20;;;;;;5014247;28;20788;-92
2022/06/16 00:21:38;;;;;;;2.30;2.10;;;20.20;93.20;;;;;;5015053;28;20450;-93
2022/06/16 00:24:05;;;;;;;8.50;3.13;;;20.20;93.20;;;;;;5021702;28;20190;-93
2022/06/16 00:26:31;;;;;;;1.70;1.60;;;20.10;93.30;;;;;;5022638;28;20305;-96
2022/06/16 00:28:57;;;;;;;2.27;2.10;;;20.10;93.20;;;;;;5018621;28;20463;-93
2022/06/16 00:31:23;;;;;;;3.20;2.33;;;20.10;93.30;;;;;;5017456;28;20559;-96
2022/06/16 00:33:49;;;;;;;2.47;2.20;;;20.00;93.40;;;;;;5018806;28;20411;-93
2022/06/16 00:36:16;;;;;;;2.60;2.40;;;20.00;93.50;;;;;;5016440;28;20442;-94
2022/06/16 00:38:43;;;;;;;2.20;2.10;;;20.00;93.60;;;;;;5024151;28;20489;-95
2022/06/16 00:41:09;;;;;;;2.70;2.17;;;20.00;93.40;;;;;;5016838;28;20561;-92
2022/06/16 00:43:35;;;;;;;2.47;2.27;;;19.90;93.50;;;;;;5014802;28;20420;-96
2022/06/16 00:46:07;;;;;;;2.13;1.93;;;19.90;93.60;;;;;;5014182;28;20447;-92
2022/06/16 00:48:52;;;;;;;2.20;2.00;;;19.90;93.50;;;;;;5014816;28;20480;-95
2022/06/16 00:51:48;;;;;;;4.30;2.70;;;19.90;93.70;;;;;;5015773;28;20557;-93
2022/06/16 00:54:55;;;;;;;3.80;2.43;;;19.90;93.70;;;;;;5027355;28;20428;-95
2022/06/16 00:57:31;;;;;;;2.43;2.20;;;19.80;94.20;;;;;;5015786;28;20491;-95
2022/06/16 00:59:58;;;;;;;2.67;2.00;;;19.80;94.50;;;;;;5014083;28;20419;-95
2022/06/16 01:02:26;;;;;;;3.17;2.37;;;19.80;94.70;;;;;;5014249;28;20509;-96
2022/06/16 01:04:52;;;;;;;11.60;2.97;;;19.80;94.90;;;;;;5018022;28;20414;-93
2022/06/16 01:07:34;;;;;;;2.00;1.90;;;19.70;95.20;;;;;;5027085;28;20459;-94
2022/06/16 01:10:01;;;;;;;2.33;2.13;;;19.70;95.30;;;;;;5020156;28;20666;-92
2022/06/16 01:15:30;;;;;;;3.83;2.10;;;19.60;95.20;;;;;;5015050;28;20428;-95
2022/06/16 01:18:21;;;;;;;2.57;2.37;;;19.60;94.80;;;;;;5013894;28;20907;-93
2022/06/16 01:21:03;;;;;;;3.20;2.90;;;19.60;94.70;;;;;;5013876;28;21049;-93
2022/06/16 01:23:51;;;;;;;3.13;2.50;;;19.50;95.10;;;;;;5013556;28;20952;-92
2022/06/16 01:26:16;;;;;;;4.27;2.77;;;19.50;95.40;;;;;;5013799;28;20791;-93
2022/06/16 01:29:23;;;;;;;3.27;2.37;;;19.50;95.30;;;;;;5017249;28;20416;-94
2022/06/16 01:32:11;;;;;;;2.50;2.30;;;19.50;94.90;;;;;;5016384;28;20488;-95
2022/06/16 01:35:26;;;;;;;2.90;2.60;;;19.50;94.80;;;;;;5021642;28;20446;-93
2022/06/16 01:38:02;;;;;;;2.90;2.70;;;19.40;95.20;;;;;;5031297;28;21064;-95
2022/06/16 01:40:39;;;;;;;3.77;2.33;;;19.40;95.90;;;;;;5017309;28;20459;-95
2022/06/16 01:43:23;;;;;;;5.60;2.53;;;19.40;96.10;;;;;;5017642;28;20504;-93
2022/06/16 01:45:52;;;;;;;2.77;2.20;;;19.30;95.60;;;;;;5017344;28;20969;-95
2022/06/16 01:48:19;;;;;;;3.40;2.30;;;19.30;95.80;;;;;;5017830;28;20454;-94
2022/06/16 01:50:54;;;;;;;2.87;2.20;;;19.30;95.90;;;;;;5017257;28;20435;-95
2022/06/16 01:53:43;;;;;;;3.23;2.97;;;19.30;96.20;;;;;;5017284;28;20417;-92
2022/06/16 01:56:38;;;;;;;2.80;2.60;;;19.20;96.40;;;;;;5018043;28;20453;-93
2022/06/16 01:59:34;;;;;;;3.33;2.63;;;19.20;96.60;;;;;;5016973;28;20436;-95
2022/06/16 02:02:07;;;;;;;3.63;3.20;;;19.10;96.90;;;;;;5017016;28;20450;-92
2022/06/16 02:04:37;;;;;;;2.63;2.40;;;19.10;97.10;;;;;;5016810;28;20413;-94
2022/06/16 02:07:07;;;;;;;2.23;2.03;;;19.10;97.40;;;;;;5018131;28;20450;-93
2022/06/16 02:09:44;;;;;;;7.60;3.27;;;19.00;97.40;;;;;;5024574;28;21014;-95
2022/06/16 02:12:55;;;;;;;2.60;2.40;;;19.00;97.20;;;;;;5020668;28;20429;-92
2022/06/16 02:15:09;;;;;;;3.90;3.43;;;18.90;97.20;;;;;;5038743;28;20394;-94
2022/06/16 02:17:35;;;;;;;3.67;2.70;;;18.90;97.30;;;;;;5037378;28;20586;-94
2022/06/16 02:20:01;;;;;;;2.70;2.50;;;18.80;97.40;;;;;;5037092;28;20422;-92
2022/06/16 02:22:27;;;;;;;3.20;2.90;;;18.80;97.50;;;;;;5017173;28;20438;-95
2022/06/16 02:24:53;;;;;;;2.63;2.43;;;18.70;97.60;;;;;;5016440;28;20449;-92
2022/06/16 02:27:20;;;;;;;2.93;2.60;;;18.70;97.70;;;;;;5018300;28;20207;-92
2022/06/16 02:29:45;;;;;;;2.80;2.53;;;18.70;97.90;;;;;;5016431;28;20421;-92
2022/06/16 02:32:21;;;;;;;7.63;2.60;;;18.60;98.30;;;;;;5017023;28;20587;-95
2022/06/16 02:35:05;;;;;;;2.93;2.67;;;18.60;98.50;;;;;;5016524;28;20246;-95
2022/06/16 02:37:59;;;;;;;2.60;2.40;;;18.60;98.30;;;;;;5016089;28;20476;-93
2022/06/16 02:40:59;;;;;;;3.33;2.70;;;18.50;98.30;;;;;;5016254;28;20433;-95
2022/06/16 02:44:00;;;;;;;4.30;3.20;;;18.50;98.10;;;;;;5017744;28;20501;-92
2022/06/16 02:46:38;;;;;;;4.10;3.03;;;18.50;98.30;;;;;;5015847;28;20470;-92
2022/06/16 02:49:25;;;;;;;3.33;3.03;;;18.50;98.60;;;;;;5015935;28;20434;-95
2022/06/16 02:52:12;;;;;;;4.00;2.60;;;18.50;98.60;;;;;;5016285;28;20555;-96
2022/06/16 02:54:55;;;;;;;3.80;3.00;;;18.40;98.60;;;;;;5016389;28;21004;-94
2022/06/16 02:57:46;;;;;;;5.77;3.23;;;18.40;98.50;;;;;;5015720;28;20504;-95
2022/06/16 03:00:17;;;;;;;3.47;3.17;;;18.40;98.50;;;;;;5013714;28;20436;-92
2022/06/16 03:02:43;;;;;;;2.83;2.50;;;18.40;98.70;;;;;;5015688;28;20434;-95
2022/06/16 03:05:12;;;;;;;4.73;3.40;;;18.30;99.10;;;;;;5015929;28;20473;-95
2022/06/16 03:07:38;;;;;;;3.20;2.50;;;18.30;99.20;;;;;;5015820;28;20444;-94
2022/06/16 03:10:06;;;;;;;5.80;3.03;;;18.30;99.30;;;;;;5017571;28;20427;-95
2022/06/16 03:12:32;;;;;;;3.27;2.90;;;18.30;99.40;;;;;;5015761;28;20448;-95
2022/06/16 03:14:58;;;;;;;3.70;3.27;;;18.40;99.30;;;;;;5021155;28;20433;-94
2022/06/16 03:17:25;;;;;;;4.70;2.87;;;18.40;99.10;;;;;;5026120;28;20468;-94
2022/06/16 03:19:51;;;;;;;8.20;3.10;;;18.40;98.90;;;;;;5026370;28;20420;-93
2022/06/16 03:22:19;;;;;;;3.90;2.53;;;18.50;98.70;;;;;;5022575;28;20480;-93
2022/06/16 03:24:45;;;;;;;3.53;3.23;;;18.50;98.60;;;;;;5023269;28;20199;-93
2022/06/16 03:27:11;;;;;;;5.90;2.90;;;18.50;98.60;;;;;;5021126;28;20511;-93
2022/06/16 03:29:38;;;;;;;3.67;2.70;;;18.50;98.60;;;;;;5026297;28;20456;-93
2022/06/16 03:32:05;;;;;;;3.30;3.00;;;18.50;98.70;;;;;;5018087;28;20889;-95
2022/06/16 03:34:31;;;;;;;3.07;2.87;;;18.50;98.70;;;;;;5016465;28;20842;-93
2022/06/16 03:36:57;;;;;;;3.40;3.10;;;18.50;98.70;;;;;;5015775;28;20469;-95
2022/06/16 03:39:23;;;;;;;3.37;3.00;;;18.50;98.80;;;;;;5020181;28;20442;-94
2022/06/16 03:41:49;;;;;;;4.20;3.33;;;18.50;98.90;;;;;;5014631;28;20456;-93
2022/06/16 03:44:15;;;;;;;3.37;3.07;;;18.50;98.80;;;;;;5020530;28;20555;-95
2022/06/16 03:46:41;;;;;;;3.10;2.80;;;18.50;98.80;;;;;;5015316;28;20543;-95
2022/06/16 03:49:07;;;;;;;3.17;2.87;;;18.50;98.90;;;;;;5014753;28;20464;-93
2022/06/16 03:51:34;;;;;;;3.40;3.10;;;18.50;99.00;;;;;;5014758;28;20444;-94
2022/06/16 03:54:00;;;;;;;4.90;3.43;;;18.50;99.10;;;;;;5014900;28;20412;-95
2022/06/16 03:56:26;;;;;;;4.30;4.00;;;18.60;99.30;;;;;;5015917;28;20468;-94
2022/06/16 03:58:54;;;;;;;3.23;2.93;;;18.60;99.30;;;;;;5013839;28;20409;-93
2022/06/16 04:01:20;;;;;;;4.60;3.13;;;18.60;99.30;;;;;;5014801;28;21043;-94
2022/06/16 04:04:01;;;;;;;5.23;3.83;;;18.60;99.20;;;;;;5014474;28;20945;-94
2022/06/16 04:06:34;;;;;;;4.97;3.33;;;18.60;99.10;;;;;;5014430;28;20459;-93
2022/06/16 04:09:02;;;;;;;4.63;3.57;;;18.70;99.10;;;;;;5014065;28;20401;-95
2022/06/16 04:11:28;;;;;;;3.83;3.00;;;18.70;99.10;;;;;;5016203;28;20452;-93
2022/06/16 04:13:57;;;;;;;20.07;12.23;;;18.70;99.10;;;;;;5014764;28;20421;-94
2022/06/16 04:16:23;;;;;;;8.97;7.20;;;18.70;99.20;;;;;;5014282;28;20812;-94
2022/06/16 04:18:49;;;;;;;13.07;7.50;;;18.80;99.30;;;;;;5014101;28;20814;-94
2022/06/16 04:21:16;;;;;;;5.37;4.07;;;18.80;99.30;;;;;;5015208;28;20547;-94
2022/06/16 04:23:42;;;;;;;7.03;3.87;;;18.80;99.30;;;;;;5024824;28;20414;-94
2022/06/16 04:26:08;;;;;;;6.90;4.10;;;18.90;99.30;;;;;;5033786;28;20472;-94
2022/06/16 04:28:34;;;;;;;5.13;4.00;;;18.90;99.30;;;;;;5028638;28;20421;-93
2022/06/16 04:31:00;;;;;;;6.13;4.07;;;19.00;99.30;;;;;;5014220;28;20437;-96
2022/06/16 04:33:26;;;;;;;4.17;3.77;;;19.00;99.90;;;;;;5014106;28;20425;-94
2022/06/16 04:35:52;;;;;;;6.63;4.23;;;19.00;99.90;;;;;;5013034;28;20433;-93
2022/06/16 04:38:18;;;;;;;4.50;3.90;;;19.00;99.90;;;;;;5011303;28;20466;-94
2022/06/16 04:40:45;;;;;;;5.80;4.30;;;19.00;99.90;;;;;;5015000;28;20444;-93
2022/06/16 04:43:14;;;;;;;4.33;3.40;;;19.00;99.90;;;;;;5015457;28;20803;-94
2022/06/16 04:45:40;;;;;;;4.10;3.50;;;19.00;99.90;;;;;;5017007;28;20441;-92
2022/06/16 04:48:07;;;;;;;3.50;3.20;;;19.10;99.90;;;;;;5014710;28;20434;-94
2022/06/16 04:50:34;;;;;;;3.87;3.43;;;19.10;99.90;;;;;;5014030;28;20425;-94
2022/06/16 04:53:00;;;;;;;3.40;3.10;;;19.20;99.90;;;;;;5011207;28;20456;-93
2022/06/16 04:55:26;;;;;;;3.90;3.50;;;19.20;99.90;;;;;;4998241;28;20447;-94
2022/06/16 04:57:54;;;;;;;5.40;4.17;;;19.20;99.90;;;;;;5006564;28;20486;-93
2022/06/16 05:00:20;;;;;;;4.40;3.50;;;19.30;99.90;;;;;;5013294;28;20426;-95
2022/06/16 05:02:46;;;;;;;5.93;4.30;;;19.30;99.90;;;;;;5010650;28;20469;-95
2022/06/16 05:05:13;;;;;;;5.20;3.80;;;19.40;99.90;;;;;;5014212;28;20470;-95
2022/06/16 05:07:40;;;;;;;5.53;3.43;;;19.50;99.90;;;;;;5003366;28;20451;-93
2022/06/16 05:10:07;;;;;;;3.90;3.47;;;19.50;99.90;;;;;;4999256;28;20442;-94
2022/06/16 05:12:33;;;;;;;3.53;3.23;;;19.60;99.90;;;;;;5020992;28;21141;-93
2022/06/16 05:14:59;;;;;;;5.43;3.33;;;19.70;99.90;;;;;;5021375;28;20432;-92
2022/06/16 05:17:25;;;;;;;4.20;3.80;;;19.70;99.90;;;;;;5020036;28;20548;-94
2022/06/16 05:19:50;;;;;;;4.43;3.73;;;19.80;99.90;;;;;;5021388;28;20427;-93
2022/06/16 05:22:16;;;;;;;3.30;3.00;;;19.80;99.90;;;;;;5019372;28;20205;-92
2022/06/16 05:24:42;;;;;;;4.47;3.60;;;19.90;99.90;;;;;;5014910;28;20239;-93
2022/06/16 05:27:08;;;;;;;185.73;95.30;;;19.90;99.90;;;;;;5025575;28;20450;-93
2022/06/16 05:29:34;;;;;;;83.63;43.33;;;20.00;99.90;;;;;;5026013;28;20201;-93
2022/06/16 05:32:00;;;;;;;14.13;8.63;;;20.10;99.90;;;;;;5027545;28;20458;-92
2022/06/16 05:34:27;;;;;;;12.50;5.33;;;20.10;99.90;;;;;;5027412;28;20911;-93
2022/06/16 05:36:53;;;;;;;4.63;4.10;;;20.20;99.90;;;;;;5036363;28;20738;-94
2022/06/16 05:39:19;;;;;;;5.00;3.50;;;20.20;99.90;;;;;;5016915;28;20438;-92
2022/06/16 05:41:46;;;;;;;5.33;4.03;;;20.30;99.90;;;;;;5017163;28;20455;-92
2022/06/16 05:44:12;;;;;;;4.37;3.23;;;20.40;99.90;;;;;;5016940;28;20435;-94
2022/06/16 05:46:40;;;;;;;5.20;4.20;;;20.40;99.90;;;;;;5016813;28;20545;-94
2022/06/16 05:49:06;;;;;;;4.30;3.80;;;20.50;99.90;;;;;;5011671;28;20423;-92
2022/06/16 05:51:32;;;;;;;3.70;3.10;;;20.50;99.90;;;;;;5016120;28;20816;-94
2022/06/16 05:53:58;;;;;;;3.90;3.50;;;20.50;99.90;;;;;;4999385;28;20454;-94
2022/06/16 05:56:25;;;;;;;4.43;3.30;;;20.60;99.90;;;;;;5016438;28;20491;-92
2022/06/16 05:58:51;;;;;;;3.40;3.10;;;20.70;99.90;;;;;;5025863;28;20484;-95
2022/06/16 06:01:17;;;;;;;3.50;3.20;;;20.70;99.90;;;;;;5016472;28;20856;-91
2022/06/16 06:03:44;;;;;;;4.10;3.63;;;20.80;99.90;;;;;;5014515;28;20193;-93
2022/06/16 06:06:10;;;;;;;8.73;3.80;;;20.90;99.90;;;;;;5014002;28;20452;-93
2022/06/16 06:17:11;;;;;;;4.83;3.53;;;21.20;99.90;;;;;;5015407;28;20542;-92
2022/06/16 06:19:38;;;;;;;4.93;3.60;;;21.30;99.90;;;;;;5013775;28;20428;-90
2022/06/16 06:22:13;;;;;;;2.97;2.77;;;21.40;99.90;;;;;;5016203;28;20492;-92
2022/06/16 06:24:48;;;;;;;3.53;2.80;;;21.50;99.90;;;;;;5014088;28;20420;-92
2022/06/16 06:27:30;;;;;;;4.37;3.03;;;21.60;99.90;;;;;;5014326;28;20554;-92
2022/06/16 06:29:56;;;;;;;4.90;3.47;;;21.70;99.90;;;;;;5027235;28;20451;-92
2022/06/16 06:32:24;;;;;;;3.93;3.60;;;21.70;99.90;;;;;;5015099;28;20833;-94
2022/06/16 06:34:50;;;;;;;5.07;4.00;;;21.80;99.90;;;;;;5015037;28;20412;-94
2022/06/16 06:37:18;;;;;;;65.07;35.10;;;21.90;99.90;;;;;;5026527;28;20480;-93
2022/06/16 06:39:46;;;;;;;5.60;5.00;;;22.00;99.90;;;;;;5015392;28;20515;-92
2022/06/16 06:42:12;;;;;;;6.80;3.70;;;22.10;99.90;;;;;;5015873;28;20522;-92
2022/06/16 06:44:38;;;;;;;3.43;3.07;;;22.10;99.90;;;;;;5014090;28;20412;-93
2022/06/16 06:47:05;;;;;;;3.90;3.53;;;22.20;99.90;;;;;;5012197;28;20499;-92
2022/06/16 06:49:30;;;;;;;4.33;3.07;;;22.30;99.90;;;;;;5012142;28;20418;-92
2022/06/16 06:51:56;;;;;;;3.37;2.73;;;22.40;99.90;;;;;;5034576;28;20437;-92
2022/06/16 06:54:23;;;;;;;2.83;2.63;;;22.40;99.90;;;;;;5027400;28;20450;-94
2022/06/16 06:56:50;;;;;;;5.27;2.90;;;22.50;99.80;;;;;;5012866;28;20245;-92
2022/06/16 06:59:21;;;;;;;3.50;3.10;;;22.60;99.50;;;;;;5014988;28;20420;-93
2022/06/16 07:01:51;;;;;;;3.23;2.67;;;22.70;99.50;;;;;;5050714;28;20451;-92
2022/06/16 07:04:18;;;;;;;3.57;2.93;;;22.80;99.00;;;;;;5050142;28;20417;-93
2022/06/16 07:06:46;;;;;;;4.50;2.90;;;22.90;98.10;;;;;;5041944;28;20810;-94
2022/06/16 07:09:13;;;;;;;2.67;2.30;;;23.00;98.40;;;;;;5014189;28;20435;-92
2022/06/16 07:11:41;;;;;;;5.63;3.23;;;23.10;98.60;;;;;;5008304;28;20452;-94
2022/06/16 07:14:07;;;;;;;2.78;2.55;;;23.20;98.50;;;;;;5031172;28;20413;-93
2022/06/16 07:16:33;;;;;;;3.20;2.90;;;23.30;98.00;;;;;;5048791;28;20229;-93
2022/06/16 07:18:59;;;;;;;2.47;2.20;;;23.40;96.90;;;;;;5036938;28;20442;-93
2022/06/16 07:21:25;;;;;;;3.67;2.83;;;23.50;97.20;;;;;;5020963;28;21023;-93
2022/06/16 07:23:51;;;;;;;3.10;2.87;;;23.60;97.40;;;;;;5043956;28;20430;-93
2022/06/16 07:26:18;;;;;;;3.23;2.93;;;23.70;96.90;;;;;;5014154;28;20473;-93
2022/06/16 07:28:44;;;;;;;2.73;2.50;;;23.90;96.90;;;;;;5030323;28;20793;-95
2022/06/16 07:31:10;;;;;;;3.13;2.83;;;24.00;97.20;;;;;;5024414;28;20449;-93
2022/06/16 07:33:36;;;;;;;2.87;2.50;;;24.10;96.20;;;;;;5015161;28;20996;-93
2022/06/16 07:36:03;;;;;;;4.53;2.60;;;24.30;95.40;;;;;;5014571;28;20430;-94
2022/06/16 07:38:30;;;;;;;2.03;1.90;;;24.40;95.00;;;;;;5015026;28;20999;-93
2022/06/16 07:41:31;;;;;;;2.67;2.20;;;24.60;94.70;;;;;;5014793;28;20955;-93
2022/06/16 07:43:42;;;;;;;3.10;2.67;;;24.70;94.30;;;;;;5015326;28;20454;-94
2022/06/16 07:46:08;;;;;;;3.00;2.27;;;24.80;94.40;;;;;;5015047;28;20946;-93
2022/06/16 07:48:34;;;;;;;2.50;2.23;;;25.00;94.40;;;;;;5014846;28;20528;-93
2022/06/16 07:51:00;;;;;;;3.30;2.20;;;25.10;93.90;;;;;;5014924;28;20512;-93
2022/06/16 07:53:26;;;;;;;4.10;2.40;;;25.20;93.50;;;;;;5014775;28;20480;-94
2022/06/16 07:55:53;;;;;;;2.67;2.47;;;25.40;93.00;;;;;;5013164;28;20439;-93
2022/06/16 07:58:19;;;;;;;3.20;2.00;;;25.50;92.90;;;;;;5012361;28;20830;-93
2022/06/16 08:00:45;;;;;;;2.50;2.30;;;25.60;93.10;;;;;;5011366;28;20800;-94
2022/06/16 08:03:10;;;;;;;2.37;2.17;;;25.70;93.30;;;;;;5012658;28;20429;-94
2022/06/16 08:05:36;;;;;;;3.10;2.40;;;25.80;92.10;;;;;;5012158;28;20233;-94
2022/06/16 08:08:03;;;;;;;2.17;1.97;;;25.80;91.70;;;;;;5013131;28;20227;-94
2022/06/16 08:10:34;;;;;;;2.33;2.10;;;25.90;91.50;;;;;;5012691;28;20448;-94
2022/06/16 08:13:00;;;;;;;4.03;2.00;;;26.00;91.50;;;;;;5014155;28;20456;-93
2022/06/16 08:15:26;;;;;;;3.80;2.30;;;26.10;91.40;;;;;;5017014;28;20540;-93
2022/06/16 08:17:55;;;;;;;6.23;2.57;;;26.20;91.40;;;;;;5012386;28;20511;-93
2022/06/16 08:20:21;;;;;;;2.30;1.90;;;26.30;91.00;;;;;;5027134;28;20437;-94
2022/06/16 08:22:47;;;;;;;4.80;2.30;;;26.40;90.20;;;;;;5011073;28;20436;-94
2022/06/16 08:25:15;;;;;;;2.60;2.40;;;26.50;89.10;;;;;;5007299;28;20845;-94
2022/06/16 08:27:42;;;;;;;2.03;1.83;;;26.50;88.90;;;;;;5011088;28;20467;-94
2022/06/16 08:30:11;;;;;;;2.43;2.10;;;26.60;90.30;;;;;;5008840;28;20428;-94
2022/06/16 08:32:37;;;;;;;2.80;2.43;;;26.70;89.40;;;;;;5011169;28;20449;-93
2022/06/16 08:35:04;;;;;;;3.40;2.13;;;26.70;87.90;;;;;;5013300;28;20401;-95
2022/06/16 08:37:31;;;;;;;3.10;2.17;;;26.80;84.50;;;;;;5014647;28;20226;-96
2022/06/16 08:39:57;;;;;;;1.90;1.80;;;26.80;84.30;;;;;;5022216;28;20428;-96
2022/06/16 08:42:38;;;;;;;3.60;2.50;;;26.90;82.70;;;;;;5014188;28;20479;-96
2022/06/16 08:45:05;;;;;;;2.27;2.17;;;26.90;82.30;;;;;;5025974;28;20480;-95
2022/06/16 08:47:56;;;;;;;2.27;2.10;;;27.00;82.60;;;;;;5019024;28;20964;-96
2022/06/16 08:50:35;;;;;;;2.30;2.10;;;27.00;83.20;;;;;;5011440;28;20445;-96
2022/06/16 08:53:23;;;;;;;1.80;1.70;;;27.10;81.50;;;;;;5017693;28;20551;-94
2022/06/16 08:56:20;;;;;;;2.20;2.10;;;27.10;79.80;;;;;;5009461;28;20460;-96
2022/06/16 08:59:10;;;;;;;2.30;2.10;;;27.20;79.80;;;;;;5027375;28;20500;-96
2022/06/16 09:02:17;;;;;;;2.07;1.87;;;27.20;79.80;;;;;;5024133;28;20466;-96
2022/06/16 09:05:09;;;;;;;2.47;2.27;;;27.30;82.60;;;;;;5006526;28;20436;-96
2022/06/16 09:07:53;;;;;;;2.43;1.83;;;27.40;80.40;;;;;;5066315;23;21759;-67
2022/06/16 09:10:29;;;;;;;2.23;1.70;;;27.50;80.30;;;;;;5009661;28;20501;-71
2022/06/16 09:13:10;;;;;;;2.23;2.03;;;27.50;77.40;;;;;;5001238;28;20448;-72
2022/06/16 09:16:00;;;;;;;1.80;1.70;;;27.60;76.90;;;;;;4987256;28;20448;-69
2022/06/16 09:18:32;;;;;;;2.20;1.77;;;27.70;77.10;;;;;;4993108;28;20476;-69
2022/06/16 09:21:07;;;;;;;2.80;1.60;;;27.70;78.90;;;;;;4992744;28;20429;-71
2022/06/16 09:23:54;;;;;;;1.87;1.73;;;27.80;76.70;;;;;;4992616;28;20517;-69
2022/06/16 09:26:34;;;;;;;1.80;1.70;;;27.90;76.90;;;;;;5022718;28;20508;-69
2022/06/16 09:29:19;;;;;;;2.20;1.87;;;27.90;76.30;;;;;;4995302;28;20436;-73
2022/06/16 09:32:22;;;;;;;2.87;2.00;;;28.00;75.40;;;;;;4992388;28;20454;-72
2022/06/16 09:35:03;;;;;;;3.20;2.30;;;28.10;75.30;;;;;;4971116;28;20430;-72
2022/06/16 09:37:47;;;;;;;2.30;2.10;;;28.20;76.80;;;;;;4984861;28;20543;-73
2022/06/16 09:40:26;;;;;;;2.20;2.10;;;28.20;74.30;;;;;;4991195;28;20823;-68
2022/06/16 09:43:13;;;;;;;1.90;1.80;;;28.30;76.70;;;;;;5009687;28;20790;-72
2022/06/16 09:45:54;;;;;;;2.20;2.00;;;28.30;77.60;;;;;;4993637;28;20983;-72
2022/06/16 09:48:47;;;;;;;2.97;2.53;;;28.40;76.30;;;;;;4997165;28;20441;-69
2022/06/16 09:51:19;;;;;;;8.07;4.90;;;28.50;77.60;;;;;;4988422;28;20723;-68
2022/06/16 09:54:11;;;;;;;4.60;3.20;;;28.50;75.60;;;;;;4992242;28;20472;-71
2022/06/16 09:56:58;;;;;;;3.00;1.80;;;28.60;75.40;;;;;;4973554;28;20441;-69
2022/06/16 09:59:58;;;;;;;1.70;1.60;;;28.70;75.00;;;;;;5001120;28;21053;-68
2022/06/16 10:02:34;;;;;;;3.13;1.90;;;28.80;74.10;;;;;;5013100;28;20469;-71
2022/06/16 10:05:00;;;;;;;2.50;2.30;;;28.80;73.70;;;;;;5015060;28;20798;-67
2022/06/16 10:07:50;;;;;;;2.20;2.00;;;28.80;76.00;;;;;;5011414;23;20496;-68
2022/06/16 10:13:45;;;;;;;3.50;2.00;;;28.90;74.30;;;;;;5022903;23;20493;-72
2022/06/16 10:16:18;;;;;;;1.87;1.77;;;28.90;73.60;;;;;;5025918;28;20444;-72
2022/06/16 10:18:50;;;;;;;2.07;1.93;;;29.00;74.00;;;;;;5017053;28;20522;-68
2022/06/16 10:21:16;;;;;;;2.80;2.00;;;29.10;74.70;;;;;;5010832;28;20481;-68
2022/06/16 10:27:20;;;;;;;2.43;2.10;;;29.20;70.40;;;;;;5019207;23;21027;-94
2022/06/16 10:29:58;;;;;;;2.40;1.70;;;29.10;70.50;;;;;;4988236;28;20486;-90
2022/06/16 10:32:38;;;;;;;2.00;1.80;;;29.10;69.70;;;;;;4979483;28;20539;-91
2022/06/16 10:35:06;;;;;;;2.00;1.90;;;29.10;68.80;;;;;;4994492;28;20451;-91
2022/06/16 10:37:32;;;;;;;4.50;2.10;;;29.10;71.90;;;;;;4999959;28;20471;-90
2022/06/16 10:40:07;;;;;;;1.60;1.50;;;29.10;71.40;;;;;;5000715;28;20473;-93
2022/06/16 10:42:43;;;;;;;1.57;1.47;;;29.10;72.30;;;;;;4992783;28;20452;-93
2022/06/16 10:45:13;;;;;;;2.00;1.90;;;29.10;72.30;;;;;;4995098;28;20451;-93
2022/06/16 10:47:39;;;;;;;3.53;2.07;;;29.20;75.40;;;;;;4990992;28;20463;-94
2022/06/16 10:50:14;;;;;;;4.60;2.00;;;29.20;75.00;;;;;;4999674;28;20815;-91
2022/06/16 10:52:47;;;;;;;1.97;1.70;;;29.30;75.80;;;;;;4994275;28;20202;-94
2022/06/16 10:55:14;;;;;;;2.90;2.30;;;29.30;73.10;;;;;;4993405;28;20431;-91
2022/06/16 10:57:45;;;;;;;2.23;2.13;;;29.40;72.70;;;;;;4991980;28;20734;-93
2022/06/16 11:00:21;;;;;;;1.73;1.63;;;29.40;72.20;;;;;;4992372;28;20448;-91
2022/06/16 11:03:01;;;;;;;1.70;1.60;;;29.40;73.00;;;;;;4994151;28;20537;-91
2022/06/16 11:05:30;;;;;;;2.17;1.97;;;29.40;73.40;;;;;;5001591;28;20525;-91
2022/06/16 11:08:09;;;;;;;2.00;1.80;;;29.40;73.60;;;;;;4989623;28;20490;-93
2022/06/16 11:10:40;;;;;;;2.33;1.97;;;29.40;71.90;;;;;;4993882;28;20437;-93
2022/06/16 11:13:07;;;;;;;1.70;1.60;;;29.30;71.00;;;;;;4995425;28;20474;-91
2022/06/16 11:15:38;;;;;;;1.80;1.70;;;29.30;70.60;;;;;;4997890;28;20505;-89
2022/06/16 11:18:07;;;;;;;1.87;1.63;;;29.30;69.30;;;;;;4988622;28;20498;-93
2022/06/16 11:20:41;;;;;;;1.83;1.67;;;29.30;69.60;;;;;;4990079;28;20432;-91
2022/06/16 11:23:29;;;;;;;2.27;1.30;;;29.20;68.00;;;;;;4992136;28;20449;-90
2022/06/16 11:26:18;;;;;;;1.47;1.37;;;29.20;69.30;;;;;;4975016;28;20442;-94
2022/06/16 11:28:48;;;;;;;2.07;1.90;;;29.20;70.00;;;;;;4990358;28;20489;-93
2022/06/16 11:31:23;;;;;;;3.50;1.80;;;29.10;68.60;;;;;;4995810;28;20423;-94
2022/06/16 11:34:25;;;;;;;2.37;1.57;;;29.10;69.20;;;;;;4987397;28;20790;-94
2022/06/16 11:37:09;;;;;;;2.13;1.70;;;29.10;68.70;;;;;;4987175;28;20482;-91
2022/06/16 11:40:24;;;;;;;1.77;1.67;;;29.00;66.40;;;;;;4991660;28;20996;-92
2022/06/16 11:43:16;;;;;;;2.30;2.10;;;29.00;66.10;;;;;;4973329;28;20791;-91
2022/06/16 11:45:56;;;;;;;2.50;2.10;;;29.00;68.60;;;;;;4992554;28;20448;-92
2022/06/16 11:49:26;;;;;;;1.90;1.60;;;29.00;69.70;;;;;;4988647;28;20535;-91
2022/06/16 11:52:20;;;;;;;2.33;1.90;;;29.00;68.00;;;;;;4956070;28;20455;-94
2022/06/16 11:55:00;;;;;;;1.80;1.70;;;29.00;69.30;;;;;;4969485;28;20432;-93
2022/06/16 11:57:54;;;;;;;4.03;2.10;;;29.00;68.60;;;;;;4978959;28;20486;-93
2022/06/16 12:00:30;;;;;;;1.80;1.60;;;29.00;68.10;;;;;;4993642;28;20467;-93
2022/06/16 12:03:19;;;;;;;3.20;1.70;;;29.10;68.60;;;;;;4992176;28;20462;-90
2022/06/16 12:06:01;;;;;;;2.00;1.90;;;29.10;69.30;;;;;;5014031;28;20428;-93
2022/06/16 12:09:06;;;;;;;1.53;1.43;;;29.10;68.90;;;;;;4981851;28;20500;-93
2022/06/16 12:12:02;;;;;;;1.80;1.70;;;29.10;69.80;;;;;;4990906;28;20455;-91
2022/06/16 12:14:33;;;;;;;3.20;1.97;;;29.10;68.60;;;;;;4999635;28;20501;-90
2022/06/16 12:17:21;;;;;;;5.63;1.70;;;29.10;67.80;;;;;;4991526;28;20454;-90
2022/06/16 12:20:05;;;;;;;2.43;1.43;;;29.00;69.50;;;;;;4987044;28;20492;-91
2022/06/16 12:22:40;;;;;;;2.00;1.90;;;29.10;68.40;;;;;;4988936;28;20625;-91
2022/06/16 12:25:33;;;;;;;1.67;1.57;;;29.10;68.10;;;;;;5000178;28;20507;-93
2022/06/16 12:28:18;;;;;;;2.77;1.90;;;29.10;68.30;;;;;;4988725;28;20485;-93
2022/06/16 12:31:12;;;;;;;5.93;1.80;;;29.10;67.90;;;;;;4990709;28;20427;-93
2022/06/16 12:34:25;;;;;;;2.27;1.80;;;29.10;68.50;;;;;;4971920;28;20494;-92
2022/06/16 12:36:54;;;;;;;2.90;1.70;;;29.10;69.20;;;;;;4912177;28;20471;-91
2022/06/16 12:39:32;;;;;;;2.10;1.97;;;29.10;69.60;;;;;;4989866;28;20515;-91
2022/06/16 12:42:06;;;;;;;2.13;1.93;;;29.10;69.80;;;;;;4987667;28;20548;-90
2022/06/16 12:44:35;;;;;;;2.07;1.97;;;29.10;70.20;;;;;;5002568;28;20468;-90
2022/06/16 12:47:04;;;;;;;3.97;2.10;;;29.20;70.40;;;;;;4993138;28;20545;-92
2022/06/16 12:49:37;;;;;;;2.33;2.13;;;29.20;69.90;;;;;;4994755;28;20459;-94
2022/06/16 12:52:14;;;;;;;3.00;1.70;;;29.20;70.20;;;;;;4995180;28;20449;-94
2022/06/16 12:54:53;;;;;;;3.80;1.87;;;29.20;70.30;;;;;;4992850;28;20434;-94
2022/06/16 12:57:24;;;;;;;2.30;2.10;;;29.20;70.50;;;;;;5008966;28;20485;-91
2022/06/16 13:00:15;;;;;;;2.20;2.00;;;29.30;70.60;;;;;;4993792;28;20436;-94
2022/06/16 13:02:50;;;;;;;2.53;2.03;;;29.30;71.20;;;;;;4996252;28;20500;-94
2022/06/16 13:05:18;;;;;;;1.80;1.70;;;29.30;72.10;;;;;;4992139;28;20454;-93
2022/06/16 13:07:48;;;;;;;2.13;2.00;;;29.30;72.00;;;;;;4994190;28;20524;-93
2022/06/16 13:10:15;;;;;;;2.10;2.00;;;29.30;70.50;;;;;;4995300;28;20467;-94
2022/06/16 13:12:44;;;;;;;2.20;2.00;;;29.30;70.00;;;;;;4992944;28;20452;-91
2022/06/16 13:15:37;;;;;;;8.20;2.10;;;29.30;70.30;;;;;;4991926;28;20443;-95
2022/06/16 13:18:18;;;;;;;1.90;1.80;;;29.30;71.60;;;;;;4994299;28;20504;-94
2022/06/16 13:20:48;;;;;;;2.80;2.50;;;29.40;70.10;;;;;;4984825;28;20444;-93
2022/06/16 13:23:32;;;;;;;2.33;2.13;;;29.40;69.80;;;;;;4990898;28;20542;-94
2022/06/16 13:26:16;;;;;;;1.93;1.83;;;29.40;70.50;;;;;;4992319;28;20479;-95
2022/06/16 13:28:54;;;;;;;3.77;2.80;;;29.40;70.80;;;;;;5010317;28;20466;-95
2022/06/16 13:31:29;;;;;;;2.10;1.90;;;29.50;70.20;;;;;;5007197;28;20762;-94
2022/06/16 13:33:54;;;;;;;4.40;1.87;;;29.50;69.60;;;;;;5032195;28;20966;-91
2022/06/16 13:36:23;;;;;;;2.33;2.13;;;29.50;71.10;;;;;;5018122;28;20456;-91
2022/06/16 13:38:52;;;;;;;4.90;1.97;;;29.50;69.90;;;;;;5035477;28;20214;-94